createdAt,value
2019-04-05T00:01:23.656Z,9.00
2019-04-05T00:04:28.101Z,9.77
2019-04-05T00:07:32.814Z,9.37
2019-04-05T00:10:37.251Z,8.87
2019-04-05T00:13:41.688Z,9.53
2019-04-05T00:16:46.124Z,9.50
2019-04-05T00:19:50.556Z,9.20
2019-04-05T00:22:54.992Z,9.50
2019-04-05T00:25:59.434Z,8.53
2019-04-05T00:29:03.871Z,10.00
2019-04-05T00:32:08.612Z,10.30
2019-04-05T00:35:13.054Z,8.53
2019-04-05T00:38:17.497Z,9.20
2019-04-05T00:41:22.181Z,9.07
2019-04-05T00:44:26.635Z,8.63
2019-04-05T00:47:31.341Z,8.60
2019-04-05T00:50:36.066Z,9.00
2019-04-05T00:53:40.510Z,8.47
2019-04-05T00:56:44.949Z,8.73
2019-04-05T00:59:49.388Z,9.00
2019-04-05T01:02:53.820Z,8.50
2019-04-05T01:05:58.260Z,9.20
2019-04-05T01:09:02.957Z,9.40
2019-04-05T01:12:07.665Z,9.53
2019-04-05T01:15:14.128Z,9.83
2019-04-05T01:18:18.856Z,10.10
2019-04-05T01:21:25.704Z,9.70
2019-04-05T01:24:30.820Z,9.90
2019-04-05T01:27:37.550Z,10.20
2019-04-05T01:30:42.281Z,10.47
2019-04-05T01:33:46.731Z,9.73
2019-04-05T01:36:51.438Z,10.17
2019-04-05T01:39:55.881Z,10.13
2019-04-05T01:43:00.890Z,10.67
2019-04-05T01:46:05.615Z,10.93
2019-04-05T01:49:10.357Z,11.03
2019-04-05T01:52:15.241Z,11.10
2019-04-05T01:55:20.025Z,10.97
2019-04-05T01:58:24.463Z,11.50
2019-04-05T02:01:29.282Z,11.03
2019-04-05T02:04:34.013Z,12.40
2019-04-05T02:07:39.327Z,11.33
2019-04-05T02:10:43.770Z,11.60
2019-04-05T02:13:48.273Z,12.17
2019-04-05T02:16:52.717Z,11.33
2019-04-05T02:19:57.454Z,11.53
2019-04-05T02:23:01.959Z,11.97
2019-04-05T02:26:06.575Z,12.63
2019-04-05T02:29:11.347Z,11.57
2019-04-05T02:32:16.093Z,11.13
2019-04-05T02:35:21.121Z,12.67
2019-04-05T02:38:25.855Z,11.67
2019-04-05T02:41:32.053Z,12.47
2019-04-05T02:44:37.143Z,12.30
2019-04-05T02:47:45.186Z,10.40
2019-04-05T02:50:54.203Z,11.10
2019-04-05T02:53:59.413Z,11.40
2019-04-05T02:57:04.605Z,11.53
2019-04-05T03:00:09.603Z,10.23
2019-04-05T03:03:14.738Z,11.23
2019-04-05T03:06:19.328Z,11.20
2019-04-05T03:09:24.298Z,11.37
2019-04-05T03:12:29.286Z,11.80
2019-04-05T03:15:33.969Z,11.27
2019-04-05T03:18:43.045Z,10.47
2019-04-05T03:21:51.130Z,10.17
2019-04-05T03:24:56.768Z,11.73
2019-04-05T03:28:01.917Z,10.67
2019-04-05T03:31:06.889Z,10.53
2019-04-05T03:34:11.496Z,10.30
2019-04-05T03:37:16.928Z,10.57
2019-04-05T03:40:21.681Z,10.03
2019-04-05T03:43:26.113Z,9.87
2019-04-05T03:46:30.783Z,10.60
2019-04-05T03:49:35.401Z,10.10
2019-04-05T03:52:40.098Z,9.67
2019-04-05T03:55:44.692Z,9.73
2019-04-05T03:58:49.301Z,9.87
2019-04-05T04:01:53.811Z,9.87
2019-04-05T04:04:58.240Z,10.87
2019-04-05T04:08:02.854Z,10.13
2019-04-05T04:11:08.135Z,9.73
2019-04-05T04:14:12.980Z,9.87
2019-04-05T04:17:17.719Z,10.43
2019-04-05T04:20:38.979Z,10.40
2019-04-05T04:23:43.539Z,9.93
2019-04-05T04:26:48.056Z,10.40
2019-04-05T04:29:53.872Z,10.20
2019-04-05T04:32:58.564Z,10.10
2019-04-05T04:36:03.378Z,9.80
2019-04-05T04:39:08.514Z,10.83
2019-04-05T04:42:13.128Z,9.03
2019-04-05T04:45:18.702Z,9.80
2019-04-05T04:48:23.152Z,9.67
2019-04-05T04:51:27.971Z,7.80
2019-04-05T04:54:33.319Z,8.63
2019-04-05T04:57:38.084Z,8.53
2019-04-05T05:00:42.884Z,8.10
2019-04-05T05:03:47.952Z,8.70
2019-04-05T05:06:52.660Z,8.20
2019-04-05T05:09:57.629Z,8.97
2019-04-05T05:13:02.057Z,8.77
2019-04-05T05:16:07.667Z,8.50
2019-04-05T05:19:12.595Z,8.87
2019-04-05T05:22:17.536Z,9.03
2019-04-05T05:25:22.293Z,8.13
2019-04-05T05:28:26.801Z,8.57
2019-04-05T05:31:31.938Z,8.87
2019-04-05T05:34:36.680Z,8.97
2019-04-05T05:37:41.110Z,8.40
2019-04-05T05:40:45.873Z,8.27
2019-04-05T05:43:50.310Z,9.03
2019-04-05T05:46:54.746Z,8.33
2019-04-05T05:49:59.176Z,9.70
2019-04-05T05:53:04.237Z,9.20
2019-04-05T05:56:08.891Z,9.07
2019-04-05T05:59:13.329Z,9.13
2019-04-05T06:02:18.018Z,9.23
2019-04-05T06:05:22.446Z,8.93
2019-04-05T06:08:29.239Z,8.60
2019-04-05T06:11:33.427Z,9.63
2019-04-05T06:14:38.168Z,9.03
2019-04-05T06:17:42.611Z,9.70
2019-04-05T06:20:47.046Z,9.27
2019-04-05T06:23:51.488Z,10.27
2019-04-05T06:26:56.262Z,10.10
2019-04-05T06:30:00.710Z,9.53
2019-04-05T06:33:05.149Z,10.10
2019-04-05T06:36:09.578Z,10.13
2019-04-05T06:39:14.270Z,10.27
2019-04-05T06:42:18.999Z,9.93
2019-04-05T06:45:23.442Z,11.20
2019-04-05T06:48:29.573Z,11.57
2019-04-05T06:51:34.036Z,10.27
2019-04-05T06:54:38.483Z,9.70
2019-04-05T06:57:42.943Z,9.47
2019-04-05T07:00:56.928Z,9.60
2019-04-05T07:03:55.288Z,10.10
2019-04-05T07:06:59.866Z,9.77
2019-04-05T07:10:05.648Z,9.80
2019-04-05T07:13:10.402Z,10.03
2019-04-05T07:16:14.833Z,10.17
2019-04-05T07:19:19.551Z,9.67
2019-04-05T07:22:37.029Z,10.23
2019-04-05T07:25:30.510Z,10.43
2019-04-05T07:28:34.976Z,11.57
2019-04-05T07:31:39.702Z,10.50
2019-04-05T07:34:44.441Z,10.47
2019-04-05T07:37:49.210Z,11.37
2019-04-05T07:40:53.652Z,11.90
2019-04-05T07:43:58.425Z,11.17
2019-04-05T07:47:03.153Z,11.50
2019-04-05T07:50:09.330Z,11.80
2019-04-05T07:53:13.776Z,12.23
2019-04-05T07:56:18.218Z,11.67
2019-04-05T07:59:22.834Z,12.53
2019-04-05T08:02:27.267Z,12.33
2019-04-05T08:05:31.877Z,12.50
2019-04-05T08:08:47.008Z,13.17
2019-04-05T08:11:51.519Z,13.63
2019-04-05T08:14:56.634Z,13.03
2019-04-05T08:18:01.062Z,13.27
2019-04-05T08:21:05.506Z,12.73
2019-04-05T08:24:09.947Z,13.07
2019-04-05T08:27:14.390Z,12.93
2019-04-05T08:30:19.012Z,14.47
2019-04-05T08:33:23.452Z,14.63
2019-04-05T08:36:27.891Z,13.77
2019-04-05T08:39:32.331Z,14.23
2019-04-05T08:42:36.770Z,15.67
2019-04-05T08:45:41.211Z,14.73
2019-04-05T08:48:45.677Z,15.77
2019-04-05T08:51:50.117Z,16.03
2019-04-05T08:54:54.557Z,16.83
2019-04-05T08:57:59.003Z,16.13
2019-04-05T09:01:03.445Z,17.43
2019-04-05T09:04:07.889Z,17.43
2019-04-05T09:07:12.312Z,18.30
2019-04-05T09:10:16.749Z,17.33
2019-04-05T09:13:21.454Z,18.73
2019-04-05T09:16:25.892Z,18.40
2019-04-05T09:19:30.815Z,18.47
2019-04-05T09:22:35.546Z,19.93
2019-04-05T09:25:39.982Z,19.03
2019-04-05T09:28:44.410Z,18.53
2019-04-05T09:31:48.849Z,19.57
2019-04-05T09:34:53.289Z,18.20
2019-04-05T09:37:58.078Z,18.13
2019-04-05T09:41:02.679Z,17.90
2019-04-05T09:44:07.477Z,16.37
2019-04-05T09:47:11.872Z,16.30
2019-04-05T09:50:17.108Z,16.20
2019-04-05T09:53:21.532Z,16.87
2019-04-05T09:56:25.990Z,16.37
2019-04-05T09:59:30.436Z,16.93
2019-04-05T10:02:35.204Z,15.50
2019-04-05T10:05:39.656Z,13.20
2019-04-05T10:08:44.096Z,14.13
2019-04-05T10:11:48.548Z,14.97
2019-04-05T10:14:52.991Z,16.43
2019-04-05T10:17:57.436Z,15.67
2019-04-05T10:21:02.150Z,16.43
2019-04-05T10:24:06.882Z,10.97
2019-04-05T10:27:11.343Z,13.13
2019-04-05T10:30:16.139Z,14.87
2019-04-05T10:33:20.581Z,14.97
2019-04-05T10:36:25.057Z,14.53
2019-04-05T10:39:29.477Z,15.40
2019-04-05T10:42:36.533Z,14.23
2019-04-05T10:45:41.223Z,13.27
2019-04-05T10:48:45.679Z,13.93
2019-04-05T10:51:50.190Z,12.53
2019-04-05T10:54:54.624Z,13.17
2019-04-05T10:57:59.072Z,12.70
2019-04-05T11:01:03.516Z,14.63
2019-04-05T11:04:07.963Z,15.23
2019-04-05T11:07:12.430Z,16.93
2019-04-05T11:10:18.487Z,16.80
2019-04-05T11:13:22.938Z,17.83
2019-04-05T11:16:27.380Z,14.87
2019-04-05T11:19:32.683Z,13.27
2019-04-05T11:22:37.989Z,16.93
2019-04-05T11:25:42.747Z,16.80
2019-04-05T11:28:47.169Z,14.97
2019-04-05T11:31:57.351Z,13.50
2019-04-05T11:34:58.150Z,15.37
2019-04-05T11:38:02.845Z,15.00
2019-04-05T11:41:07.712Z,16.10
2019-04-05T11:44:12.937Z,15.70
2019-04-05T11:47:19.381Z,17.47
2019-04-05T11:50:33.844Z,18.30
2019-04-05T11:53:30.626Z,16.07
2019-04-05T11:56:35.052Z,16.47
2019-04-05T11:59:40.089Z,18.37
2019-04-05T12:02:49.121Z,16.73
2019-04-05T12:05:53.566Z,17.67
2019-04-05T12:08:59.345Z,16.33
2019-04-05T12:12:04.268Z,15.43
2019-04-05T12:15:09.113Z,15.87
2019-04-05T12:18:17.898Z,16.10
2019-04-05T12:21:21.093Z,15.97
2019-04-05T12:24:25.619Z,14.97
2019-04-05T12:27:30.347Z,15.60
2019-04-05T12:30:34.790Z,16.63
2019-04-05T12:33:39.238Z,16.67
2019-04-05T12:36:43.669Z,14.83
2019-04-05T12:39:48.116Z,14.67
2019-04-05T12:42:53.185Z,16.17
2019-04-05T12:45:57.783Z,16.07
2019-04-05T12:49:02.235Z,16.17
2019-04-05T12:52:06.911Z,15.30
2019-04-05T12:55:12.194Z,15.90
2019-04-05T12:58:16.642Z,13.97
2019-04-05T13:01:21.072Z,15.13
2019-04-05T13:04:25.519Z,13.83
2019-04-05T13:07:29.968Z,14.13
2019-04-05T13:10:34.408Z,15.07
2019-04-05T13:13:39.157Z,13.33
2019-04-05T13:16:43.886Z,14.23
2019-04-05T13:19:48.331Z,14.77
2019-04-05T13:22:53.043Z,14.20
2019-04-05T13:25:57.484Z,15.33
2019-04-05T13:29:01.924Z,14.43
2019-04-05T13:32:06.368Z,14.33
2019-04-05T13:35:10.881Z,13.60
2019-04-05T13:38:15.322Z,13.97
2019-04-05T13:41:19.755Z,14.57
2019-04-05T13:44:24.197Z,14.93
2019-04-05T13:47:28.951Z,14.83
2019-04-05T13:50:33.394Z,14.47
2019-04-05T13:53:38.409Z,14.27
2019-04-05T13:56:43.996Z,15.00
2019-04-05T13:59:48.441Z,14.77
2019-04-05T14:02:52.875Z,14.47
2019-04-05T14:05:57.640Z,14.67
2019-04-05T14:09:02.157Z,13.17
2019-04-05T14:12:09.251Z,13.37
2019-04-05T14:15:14.151Z,13.33
2019-04-05T14:18:20.794Z,13.90
2019-04-05T14:21:24.747Z,14.07
2019-04-05T14:24:29.498Z,13.80
2019-04-05T14:27:35.258Z,14.23
2019-04-05T14:30:40.506Z,14.10
2019-04-05T14:33:44.927Z,14.37
2019-04-05T14:36:50.043Z,14.47
2019-04-05T14:39:55.825Z,14.07
2019-04-05T14:43:00.548Z,12.47
2019-04-05T14:46:04.997Z,13.13
2019-04-05T14:49:09.456Z,13.87
2019-04-05T14:52:13.888Z,13.07
2019-04-05T14:55:18.341Z,11.80
2019-04-05T14:58:22.767Z,13.40
2019-04-05T15:01:27.224Z,13.37
2019-04-05T15:04:31.667Z,13.13
2019-04-05T15:07:37.739Z,14.40
2019-04-05T15:10:42.492Z,11.97
2019-04-05T15:13:46.928Z,11.97
2019-04-05T15:16:51.367Z,12.33
2019-04-05T15:19:55.808Z,12.97
2019-04-05T15:23:00.245Z,13.20
2019-04-05T15:26:04.952Z,12.60
2019-04-05T15:29:09.384Z,14.10
2019-04-05T15:32:13.832Z,12.47
2019-04-05T15:35:18.279Z,13.33
2019-04-05T15:38:22.721Z,12.73
2019-04-05T15:41:27.460Z,12.50
2019-04-05T15:44:31.897Z,12.80
2019-04-05T15:47:36.346Z,12.40
2019-04-05T15:50:40.791Z,12.77
2019-04-05T15:53:45.225Z,12.50
2019-04-05T15:56:49.672Z,13.03
2019-04-05T15:59:54.110Z,12.60
2019-04-05T16:03:00.414Z,12.83
2019-04-05T16:06:05.061Z,12.37
2019-04-05T16:09:11.319Z,13.07
2019-04-05T16:12:15.759Z,12.30
2019-04-05T16:15:20.232Z,13.07
2019-04-05T16:18:24.665Z,12.97
2019-04-05T16:21:29.108Z,13.67
2019-04-05T16:24:33.891Z,12.80
2019-04-05T16:27:38.727Z,13.77
2019-04-05T16:30:43.464Z,13.03
2019-04-05T16:33:48.187Z,12.07
2019-04-05T16:36:52.920Z,13.53
2019-04-05T16:39:57.697Z,12.37
2019-04-05T16:43:03.147Z,13.27
2019-04-05T16:46:07.761Z,12.83
2019-04-05T16:49:12.271Z,13.03
2019-04-05T16:52:16.985Z,12.60
2019-04-05T16:55:21.820Z,12.17
2019-04-05T16:58:26.260Z,12.17
2019-04-05T17:01:30.705Z,12.20
2019-04-05T17:04:35.141Z,12.10
2019-04-05T17:07:39.581Z,13.20
2019-04-05T17:10:44.039Z,13.33
2019-04-05T17:13:48.453Z,12.77
2019-04-05T17:16:52.900Z,12.30
2019-04-05T17:19:57.332Z,13.70
2019-04-05T17:23:02.043Z,13.20
2019-04-05T17:26:06.481Z,12.57
2019-04-05T17:29:11.191Z,11.73
2019-04-05T17:32:15.644Z,12.57
2019-04-05T17:35:21.099Z,12.30
2019-04-05T17:38:25.509Z,11.93
2019-04-05T17:41:29.947Z,12.30
2019-04-05T17:44:34.640Z,12.20
2019-04-05T17:47:39.084Z,12.80
2019-04-05T17:50:43.595Z,12.37
2019-04-05T17:53:48.269Z,13.43
2019-04-05T17:56:52.875Z,12.63
2019-04-05T17:59:57.786Z,13.60
2019-04-05T18:03:02.222Z,13.67
2019-04-05T18:06:06.938Z,12.40
2019-04-05T18:09:11.381Z,13.40
2019-04-05T18:12:15.823Z,13.50
2019-04-05T18:15:20.269Z,13.67
2019-04-05T18:18:25.045Z,13.40
2019-04-05T18:21:29.480Z,13.17
2019-04-05T18:24:33.919Z,12.53
2019-04-05T18:27:38.359Z,14.10
2019-04-05T18:30:42.793Z,12.70
2019-04-05T18:33:47.236Z,12.67
2019-04-05T18:36:51.682Z,13.57
2019-04-05T18:39:56.110Z,13.50
2019-04-05T18:43:00.555Z,14.17
2019-04-05T18:46:04.989Z,13.83
2019-04-05T18:49:09.434Z,13.57
2019-04-05T18:52:14.213Z,13.40
2019-04-05T18:55:18.648Z,13.40
2019-04-05T18:58:23.086Z,14.07
2019-04-05T19:01:27.790Z,15.23
2019-04-05T19:04:32.237Z,13.40
2019-04-05T19:07:36.732Z,13.90
2019-04-05T19:10:41.112Z,14.70
2019-04-05T19:13:45.895Z,14.40
2019-04-05T19:16:50.331Z,15.10
2019-04-05T19:19:55.065Z,14.97
2019-04-05T19:22:59.788Z,16.30
2019-04-05T19:26:04.616Z,17.80
2019-04-05T19:29:09.049Z,16.73
2019-04-05T19:50:51.378Z,14.60
2019-04-05T19:54:01.221Z,14.83
2019-04-05T19:57:02.269Z,15.10
2019-04-05T20:00:08.546Z,15.30
2019-04-05T20:03:12.986Z,15.30
2019-04-05T20:06:17.433Z,15.27
2019-04-05T20:09:22.446Z,15.80
2019-04-05T20:12:26.871Z,15.60
2019-04-05T20:15:31.565Z,14.03
2019-04-05T20:18:36.011Z,14.13
2019-04-05T20:21:40.443Z,14.80
2019-04-05T20:24:44.895Z,14.03
2019-04-05T20:27:49.571Z,13.87
2019-04-05T20:30:54.315Z,14.17
2019-04-05T20:33:59.033Z,14.80
2019-04-05T20:37:03.463Z,14.57
2019-04-05T20:40:09.562Z,14.17
2019-04-05T20:43:14.249Z,15.20
2019-04-05T20:46:18.976Z,14.40
2019-04-05T20:49:23.422Z,14.10
2019-04-05T20:52:27.850Z,14.00
2019-04-05T20:55:32.297Z,13.70
2019-04-05T20:58:36.728Z,14.47
2019-04-05T21:01:41.168Z,13.67
2019-04-05T21:04:45.934Z,14.07
2019-04-05T21:07:50.666Z,15.10
2019-04-05T21:10:55.388Z,14.63
2019-04-05T21:13:59.833Z,13.37
2019-04-05T21:17:04.335Z,14.10
2019-04-05T21:20:09.570Z,14.30
2019-04-05T21:23:14.004Z,13.13
2019-04-05T21:26:18.735Z,13.20
2019-04-05T21:29:23.182Z,13.90
2019-04-05T21:32:27.611Z,13.10
2019-04-05T21:35:32.119Z,12.37
2019-04-05T21:38:36.545Z,13.63
2019-04-05T21:41:41.051Z,12.73
2019-04-05T21:44:46.473Z,12.77
2019-04-05T21:47:51.105Z,13.00
2019-04-05T21:50:55.544Z,13.13
2019-04-05T21:53:59.980Z,12.87
2019-04-05T21:57:04.715Z,12.70
2019-04-05T22:00:25.208Z,13.50
2019-04-05T22:03:29.951Z,12.97
2019-04-05T22:06:34.395Z,12.57
2019-04-05T22:09:38.834Z,13.57
2019-04-05T22:12:43.271Z,13.43
2019-04-05T22:15:47.715Z,13.33
2019-04-05T22:18:52.149Z,14.07
2019-04-05T22:21:56.596Z,14.47
2019-04-05T22:25:01.029Z,13.60
2019-04-05T22:28:05.739Z,13.53
2019-04-05T22:31:10.189Z,13.80
2019-04-05T22:34:14.952Z,12.97
2019-04-05T22:37:19.648Z,12.70
2019-04-05T22:40:24.089Z,13.83
2019-04-05T22:43:28.519Z,13.20
2019-04-05T22:46:32.970Z,12.67
2019-04-05T22:49:37.733Z,13.10
2019-04-05T22:52:42.177Z,13.77
2019-04-05T22:55:46.614Z,13.23
2019-04-05T22:58:51.045Z,12.83
2019-04-05T23:01:55.492Z,14.40
2019-04-05T23:05:01.001Z,12.67
2019-04-05T23:08:05.633Z,14.13
2019-04-05T23:11:10.021Z,14.03
2019-04-05T23:14:14.773Z,14.27
2019-04-05T23:17:19.207Z,13.27
2019-04-05T23:20:23.645Z,13.80
2019-04-05T23:23:28.084Z,13.73
2019-04-05T23:26:32.529Z,14.53
2019-04-05T23:29:37.283Z,12.77
2019-04-05T23:32:42.017Z,12.93
2019-04-05T23:35:46.750Z,13.87
2019-04-05T23:38:51.181Z,12.67
2019-04-05T23:41:55.628Z,12.77
2019-04-05T23:45:00.063Z,12.97
2019-04-05T23:48:04.510Z,13.37
2019-04-05T23:51:09.272Z,15.13
2019-04-05T23:54:13.715Z,12.47
2019-04-05T23:57:18.167Z,12.40
